sensor_id;sensor_type;location;lat;lon;timestamp;P1;durP1;ratioP1;P2;durP2;ratioP2
11957;SDS011;6039;52.576;13.348;2023-04-24T00:03:17;4.43;;;3.47;;
11957;SDS011;6039;52.576;13.348;2023-04-24T00:08:22;5.00;;;3.40;;
11957;SDS011;6039;52.576;13.348;2023-04-24T00:13:26;4.63;;;3.37;;
11957;SDS011;6039;52.576;13.348;2023-04-24T00:18:33;3.67;;;2.93;;
11957;SDS011;6039;52.576;13.348;2023-04-24T00:23:37;4.73;;;3.30;;
11957;SDS011;6039;52.576;13.348;2023-04-24T00:28:42;4.37;;;3.30;;
11957;SDS011;6039;52.576;13.348;2023-04-24T00:33:48;4.40;;;3.23;;
11957;SDS011;6039;52.576;13.348;2023-04-24T00:38:52;4.80;;;3.57;;
11957;SDS011;6039;52.576;13.348;2023-04-24T00:43:56;4.97;;;3.40;;
11957;SDS011;6039;52.576;13.348;2023-04-24T00:49:03;4.53;;;3.33;;
11957;SDS011;6039;52.576;13.348;2023-04-24T00:54:08;4.63;;;3.07;;
11957;SDS011;6039;52.576;13.348;2023-04-24T00:59:12;3.47;;;3.10;;
11957;SDS011;6039;52.576;13.348;2023-04-24T01:04:19;4.67;;;3.40;;
11957;SDS011;6039;52.576;13.348;2023-04-24T01:09:23;4.23;;;3.50;;
11957;SDS011;6039;52.576;13.348;2023-04-24T01:14:28;4.20;;;3.47;;
11957;SDS011;6039;52.576;13.348;2023-04-24T01:19:35;4.73;;;3.37;;
11957;SDS011;6039;52.576;13.348;2023-04-24T01:24:42;4.67;;;3.50;;
11957;SDS011;6039;52.576;13.348;2023-04-24T01:29:46;4.80;;;3.53;;
11957;SDS011;6039;52.576;13.348;2023-04-24T01:34:51;3.90;;;3.37;;
11957;SDS011;6039;52.576;13.348;2023-04-24T01:39:58;4.63;;;3.17;;
11957;SDS011;6039;52.576;13.348;2023-04-24T01:45:04;5.87;;;4.03;;
11957;SDS011;6039;52.576;13.348;2023-04-24T01:50:09;5.30;;;3.47;;
11957;SDS011;6039;52.576;13.348;2023-04-24T01:55:16;4.10;;;3.17;;
11957;SDS011;6039;52.576;13.348;2023-04-24T02:00:20;7.00;;;4.00;;
11957;SDS011;6039;52.576;13.348;2023-04-24T02:05:24;6.63;;;3.50;;
11957;SDS011;6039;52.576;13.348;2023-04-24T02:10:30;5.10;;;3.93;;
11957;SDS011;6039;52.576;13.348;2023-04-24T02:15:35;5.37;;;4.03;;
11957;SDS011;6039;52.576;13.348;2023-04-24T02:20:38;5.57;;;3.90;;
11957;SDS011;6039;52.576;13.348;2023-04-24T02:25:45;5.83;;;4.20;;
11957;SDS011;6039;52.576;13.348;2023-04-24T02:30:50;5.63;;;4.27;;
11957;SDS011;6039;52.576;13.348;2023-04-24T02:35:54;7.30;;;5.13;;
11957;SDS011;6039;52.576;13.348;2023-04-24T02:41:00;7.17;;;5.40;;
11957;SDS011;6039;52.576;13.348;2023-04-24T02:46:06;7.03;;;4.93;;
11957;SDS011;6039;52.576;13.348;2023-04-24T02:51:10;7.87;;;4.20;;
11957;SDS011;6039;52.576;13.348;2023-04-24T02:56:16;5.23;;;3.97;;
11957;SDS011;6039;52.576;13.348;2023-04-24T03:01:20;6.37;;;4.17;;
11957;SDS011;6039;52.576;13.348;2023-04-24T03:06:25;5.60;;;4.30;;
11957;SDS011;6039;52.576;13.348;2023-04-24T03:11:36;6.47;;;4.77;;
11957;SDS011;6039;52.576;13.348;2023-04-24T03:16:40;5.10;;;3.80;;
11957;SDS011;6039;52.576;13.348;2023-04-24T03:21:44;5.70;;;4.20;;
11957;SDS011;6039;52.576;13.348;2023-04-24T03:26:51;5.33;;;4.27;;
11957;SDS011;6039;52.576;13.348;2023-04-24T03:31:56;6.07;;;4.63;;
11957;SDS011;6039;52.576;13.348;2023-04-24T03:37:00;7.10;;;5.13;;
11957;SDS011;6039;52.576;13.348;2023-04-24T03:42:07;5.57;;;4.03;;
11957;SDS011;6039;52.576;13.348;2023-04-24T03:47:11;6.90;;;4.47;;
11957;SDS011;6039;52.576;13.348;2023-04-24T03:52:15;5.33;;;4.00;;
11957;SDS011;6039;52.576;13.348;2023-04-24T03:57:22;5.77;;;4.37;;
11957;SDS011;6039;52.576;13.348;2023-04-24T04:02:26;8.50;;;4.40;;
11957;SDS011;6039;52.576;13.348;2023-04-24T04:07:30;6.23;;;4.17;;
11957;SDS011;6039;52.576;13.348;2023-04-24T04:12:36;5.23;;;4.20;;
11957;SDS011;6039;52.576;13.348;2023-04-24T04:17:40;4.93;;;3.87;;
11957;SDS011;6039;52.576;13.348;2023-04-24T04:22:45;5.17;;;3.83;;
11957;SDS011;6039;52.576;13.348;2023-04-24T04:27:52;5.00;;;3.40;;
11957;SDS011;6039;52.576;13.348;2023-04-24T04:32:58;5.33;;;3.20;;
11957;SDS011;6039;52.576;13.348;2023-04-24T04:38:02;6.27;;;3.60;;
11957;SDS011;6039;52.576;13.348;2023-04-24T04:43:11;5.13;;;3.50;;
11957;SDS011;6039;52.576;13.348;2023-04-24T04:48:16;4.93;;;3.60;;
11957;SDS011;6039;52.576;13.348;2023-04-24T04:53:20;5.17;;;3.60;;
11957;SDS011;6039;52.576;13.348;2023-04-24T04:58:26;4.97;;;3.10;;
11957;SDS011;6039;52.576;13.348;2023-04-24T05:03:30;3.77;;;3.23;;
11957;SDS011;6039;52.576;13.348;2023-04-24T05:08:35;4.50;;;3.03;;
11957;SDS011;6039;52.576;13.348;2023-04-24T05:13:42;4.63;;;3.40;;
11957;SDS011;6039;52.576;13.348;2023-04-24T05:18:46;4.33;;;3.23;;
11957;SDS011;6039;52.576;13.348;2023-04-24T05:23:50;4.30;;;3.40;;
11957;SDS011;6039;52.576;13.348;2023-04-24T05:28:57;4.33;;;2.93;;
11957;SDS011;6039;52.576;13.348;2023-04-24T05:34:01;4.10;;;3.30;;
11957;SDS011;6039;52.576;13.348;2023-04-24T05:39:05;3.97;;;2.77;;
11957;SDS011;6039;52.576;13.348;2023-04-24T05:44:12;4.23;;;3.07;;
11957;SDS011;6039;52.576;13.348;2023-04-24T05:49:16;4.17;;;2.93;;
11957;SDS011;6039;52.576;13.348;2023-04-24T05:54:20;3.70;;;2.77;;
11957;SDS011;6039;52.576;13.348;2023-04-24T05:59:27;4.43;;;3.00;;
11957;SDS011;6039;52.576;13.348;2023-04-24T06:04:31;4.57;;;2.70;;
11957;SDS011;6039;52.576;13.348;2023-04-24T06:09:35;3.73;;;2.60;;
11957;SDS011;6039;52.576;13.348;2023-04-24T06:14:42;3.77;;;2.10;;
11957;SDS011;6039;52.576;13.348;2023-04-24T06:19:46;6.30;;;2.60;;
11957;SDS011;6039;52.576;13.348;2023-04-24T06:24:50;3.20;;;2.13;;
11957;SDS011;6039;52.576;13.348;2023-04-24T06:29:57;2.70;;;2.20;;
11957;SDS011;6039;52.576;13.348;2023-04-24T06:35:01;2.57;;;2.20;;
11957;SDS011;6039;52.576;13.348;2023-04-24T06:40:07;2.30;;;1.60;;
11957;SDS011;6039;52.576;13.348;2023-04-24T06:45:14;2.27;;;1.90;;
11957;SDS011;6039;52.576;13.348;2023-04-24T06:50:18;2.73;;;1.70;;
11957;SDS011;6039;52.576;13.348;2023-04-24T06:55:22;2.17;;;1.57;;
11957;SDS011;6039;52.576;13.348;2023-04-24T07:00:29;1.33;;;1.23;;
11957;SDS011;6039;52.576;13.348;2023-04-24T07:05:33;2.27;;;1.33;;
11957;SDS011;6039;52.576;13.348;2023-04-24T07:10:38;1.47;;;1.30;;
11957;SDS011;6039;52.576;13.348;2023-04-24T07:15:44;6.20;;;4.23;;
11957;SDS011;6039;52.576;13.348;2023-04-24T07:20:50;4.33;;;2.77;;
11957;SDS011;6039;52.576;13.348;2023-04-24T07:25:54;2.80;;;1.50;;
11957;SDS011;6039;52.576;13.348;2023-04-24T07:31:01;1.33;;;1.10;;
11957;SDS011;6039;52.576;13.348;2023-04-24T07:36:05;1.67;;;1.20;;
11957;SDS011;6039;52.576;13.348;2023-04-24T07:41:15;1.33;;;1.00;;
11957;SDS011;6039;52.576;13.348;2023-04-24T07:46:21;2.57;;;1.70;;
11957;SDS011;6039;52.576;13.348;2023-04-24T07:51:27;1.00;;;0.90;;
11957;SDS011;6039;52.576;13.348;2023-04-24T07:56:32;1.30;;;1.07;;
11957;SDS011;6039;52.576;13.348;2023-04-24T08:01:41;1.30;;;1.20;;
11957;SDS011;6039;52.576;13.348;2023-04-24T08:06:45;0.87;;;0.80;;
11957;SDS011;6039;52.576;13.348;2023-04-24T08:11:50;1.37;;;0.97;;
11957;SDS011;6039;52.576;13.348;2023-04-24T08:16:57;1.20;;;1.00;;
11957;SDS011;6039;52.576;13.348;2023-04-24T08:22:02;1.80;;;1.10;;
11957;SDS011;6039;52.576;13.348;2023-04-24T08:27:06;1.67;;;0.80;;
11957;SDS011;6039;52.576;13.348;2023-04-24T08:32:13;0.90;;;0.80;;
11957;SDS011;6039;52.576;13.348;2023-04-24T08:37:17;0.87;;;0.80;;
11957;SDS011;6039;52.576;13.348;2023-04-24T08:42:21;0.90;;;0.80;;
11957;SDS011;6039;52.576;13.348;2023-04-24T08:47:28;1.73;;;1.00;;
11957;SDS011;6039;52.576;13.348;2023-04-24T08:52:32;0.93;;;0.83;;
11957;SDS011;6039;52.576;13.348;2023-04-24T08:57:37;0.90;;;0.90;;
11957;SDS011;6039;52.576;13.348;2023-04-24T09:02:44;1.00;;;0.80;;
11957;SDS011;6039;52.576;13.348;2023-04-24T09:07:51;0.93;;;0.90;;
11957;SDS011;6039;52.576;13.348;2023-04-24T09:12:56;0.93;;;0.70;;
11957;SDS011;6039;52.576;13.348;2023-04-24T09:18:06;1.07;;;0.70;;
11957;SDS011;6039;52.576;13.348;2023-04-24T09:23:10;0.70;;;0.70;;
11957;SDS011;6039;52.576;13.348;2023-04-24T09:28:16;0.73;;;0.73;;
11957;SDS011;6039;52.576;13.348;2023-04-24T09:33:22;0.83;;;0.63;;
11957;SDS011;6039;52.576;13.348;2023-04-24T09:38:33;0.80;;;0.80;;
11957;SDS011;6039;52.576;13.348;2023-04-24T09:43:38;1.00;;;0.90;;
11957;SDS011;6039;52.576;13.348;2023-04-24T09:48:45;0.77;;;0.70;;
11957;SDS011;6039;52.576;13.348;2023-04-24T09:53:49;2.40;;;1.20;;
11957;SDS011;6039;52.576;13.348;2023-04-24T09:58:58;1.20;;;1.10;;
11957;SDS011;6039;52.576;13.348;2023-04-24T10:04:17;1.07;;;0.97;;
11957;SDS011;6039;52.576;13.348;2023-04-24T10:09:22;1.60;;;1.50;;
11957;SDS011;6039;52.576;13.348;2023-04-24T10:14:27;2.23;;;1.30;;
11957;SDS011;6039;52.576;13.348;2023-04-24T10:19:35;2.30;;;1.37;;
11957;SDS011;6039;52.576;13.348;2023-04-24T10:24:40;0.80;;;0.80;;
11957;SDS011;6039;52.576;13.348;2023-04-24T10:29:44;1.33;;;1.23;;
11957;SDS011;6039;52.576;13.348;2023-04-24T10:34:51;1.37;;;1.13;;
11957;SDS011;6039;52.576;13.348;2023-04-24T10:39:56;1.43;;;1.10;;
11957;SDS011;6039;52.576;13.348;2023-04-24T10:45:04;1.43;;;1.03;;
11957;SDS011;6039;52.576;13.348;2023-04-24T10:50:12;1.83;;;1.30;;
11957;SDS011;6039;52.576;13.348;2023-04-24T10:55:15;3.80;;;2.80;;
11957;SDS011;6039;52.576;13.348;2023-04-24T11:00:21;2.00;;;1.67;;
11957;SDS011;6039;52.576;13.348;2023-04-24T11:10:56;3.00;;;1.60;;
11957;SDS011;6039;52.576;13.348;2023-04-24T11:16:12;1.30;;;1.10;;
11957;SDS011;6039;52.576;13.348;2023-04-24T11:21:19;1.10;;;1.00;;
11957;SDS011;6039;52.576;13.348;2023-04-24T11:26:25;1.10;;;1.00;;
11957;SDS011;6039;52.576;13.348;2023-04-24T11:31:36;1.70;;;1.10;;
11957;SDS011;6039;52.576;13.348;2023-04-24T11:41:51;1.70;;;1.20;;
11957;SDS011;6039;52.576;13.348;2023-04-24T11:46:55;3.13;;;1.03;;
11957;SDS011;6039;52.576;13.348;2023-04-24T11:52:02;1.27;;;1.10;;
11957;SDS011;6039;52.576;13.348;2023-04-24T11:57:06;1.27;;;1.10;;
11957;SDS011;6039;52.576;13.348;2023-04-24T12:02:19;1.73;;;1.40;;
11957;SDS011;6039;52.576;13.348;2023-04-24T12:07:27;2.07;;;1.50;;
11957;SDS011;6039;52.576;13.348;2023-04-24T12:12:31;2.23;;;1.60;;
11957;SDS011;6039;52.576;13.348;2023-04-24T12:17:35;2.67;;;1.70;;
11957;SDS011;6039;52.576;13.348;2023-04-24T12:22:45;3.57;;;1.50;;
11957;SDS011;6039;52.576;13.348;2023-04-24T12:27:54;2.30;;;1.77;;
11957;SDS011;6039;52.576;13.348;2023-04-24T12:33:00;3.20;;;1.33;;
11957;SDS011;6039;52.576;13.348;2023-04-24T12:38:07;2.20;;;1.43;;
11957;SDS011;6039;52.576;13.348;2023-04-24T12:43:13;2.30;;;1.33;;
11957;SDS011;6039;52.576;13.348;2023-04-24T12:48:18;1.27;;;1.07;;
11957;SDS011;6039;52.576;13.348;2023-04-24T12:53:25;1.37;;;0.73;;
11957;SDS011;6039;52.576;13.348;2023-04-24T12:58:29;2.60;;;1.13;;
11957;SDS011;6039;52.576;13.348;2023-04-24T13:03:33;1.10;;;0.90;;
11957;SDS011;6039;52.576;13.348;2023-04-24T13:08:40;2.50;;;0.90;;
11957;SDS011;6039;52.576;13.348;2023-04-24T13:13:44;0.83;;;0.83;;
11957;SDS011;6039;52.576;13.348;2023-04-24T13:18:48;1.43;;;1.10;;
11957;SDS011;6039;52.576;13.348;2023-04-24T13:23:55;1.43;;;1.13;;
11957;SDS011;6039;52.576;13.348;2023-04-24T13:28:59;1.57;;;1.17;;
11957;SDS011;6039;52.576;13.348;2023-04-24T13:34:03;1.73;;;1.17;;
11957;SDS011;6039;52.576;13.348;2023-04-24T13:39:10;0.80;;;0.80;;
11957;SDS011;6039;52.576;13.348;2023-04-24T13:44:14;1.77;;;1.47;;
11957;SDS011;6039;52.576;13.348;2023-04-24T13:49:18;2.77;;;0.90;;
11957;SDS011;6039;52.576;13.348;2023-04-24T13:54:27;1.00;;;0.90;;
11957;SDS011;6039;52.576;13.348;2023-04-24T13:59:31;1.37;;;1.00;;
11957;SDS011;6039;52.576;13.348;2023-04-24T14:04:35;1.40;;;1.10;;
11957;SDS011;6039;52.576;13.348;2023-04-24T14:09:42;1.57;;;1.10;;
11957;SDS011;6039;52.576;13.348;2023-04-24T14:14:46;1.13;;;0.97;;
11957;SDS011;6039;52.576;13.348;2023-04-24T14:19:50;1.20;;;1.10;;
11957;SDS011;6039;52.576;13.348;2023-04-24T14:24:58;1.07;;;0.90;;
11957;SDS011;6039;52.576;13.348;2023-04-24T14:30:03;2.10;;;1.10;;
11957;SDS011;6039;52.576;13.348;2023-04-24T14:35:09;1.00;;;0.90;;
11957;SDS011;6039;52.576;13.348;2023-04-24T14:40:16;1.27;;;0.90;;
11957;SDS011;6039;52.576;13.348;2023-04-24T14:45:20;1.30;;;1.00;;
11957;SDS011;6039;52.576;13.348;2023-04-24T14:50:24;0.97;;;0.90;;
11957;SDS011;6039;52.576;13.348;2023-04-24T14:55:31;1.30;;;1.20;;
11957;SDS011;6039;52.576;13.348;2023-04-24T15:00:36;1.80;;;0.90;;
11957;SDS011;6039;52.576;13.348;2023-04-24T15:05:40;1.13;;;1.00;;
11957;SDS011;6039;52.576;13.348;2023-04-24T15:10:47;2.80;;;1.33;;
11957;SDS011;6039;52.576;13.348;2023-04-24T15:15:51;3.13;;;1.47;;
11957;SDS011;6039;52.576;13.348;2023-04-24T15:20:55;1.47;;;1.20;;
11957;SDS011;6039;52.576;13.348;2023-04-24T15:26:02;1.30;;;1.20;;
11957;SDS011;6039;52.576;13.348;2023-04-24T15:31:06;1.90;;;1.43;;
11957;SDS011;6039;52.576;13.348;2023-04-24T15:36:10;1.40;;;1.30;;
11957;SDS011;6039;52.576;13.348;2023-04-24T15:41:17;1.40;;;1.17;;
11957;SDS011;6039;52.576;13.348;2023-04-24T15:46:21;3.10;;;1.33;;
11957;SDS011;6039;52.576;13.348;2023-04-24T15:51:25;1.83;;;1.20;;
11957;SDS011;6039;52.576;13.348;2023-04-24T15:56:33;1.63;;;1.30;;
11957;SDS011;6039;52.576;13.348;2023-04-24T16:01:37;1.73;;;1.20;;
11957;SDS011;6039;52.576;13.348;2023-04-24T16:06:41;1.50;;;1.30;;
11957;SDS011;6039;52.576;13.348;2023-04-24T16:11:47;1.00;;;0.90;;
11957;SDS011;6039;52.576;13.348;2023-04-24T16:16:51;1.93;;;1.17;;
11957;SDS011;6039;52.576;13.348;2023-04-24T16:21:57;1.23;;;1.13;;
11957;SDS011;6039;52.576;13.348;2023-04-24T16:27:04;1.43;;;1.10;;
11957;SDS011;6039;52.576;13.348;2023-04-24T16:32:11;1.20;;;1.10;;
11957;SDS011;6039;52.576;13.348;2023-04-24T16:37:15;1.17;;;0.97;;
11957;SDS011;6039;52.576;13.348;2023-04-24T16:42:23;1.43;;;1.10;;
11957;SDS011;6039;52.576;13.348;2023-04-24T16:47:27;1.23;;;1.10;;
11957;SDS011;6039;52.576;13.348;2023-04-24T16:52:31;1.50;;;1.37;;
11957;SDS011;6039;52.576;13.348;2023-04-24T16:57:37;1.63;;;1.30;;
11957;SDS011;6039;52.576;13.348;2023-04-24T17:02:41;5.80;;;1.40;;
11957;SDS011;6039;52.576;13.348;2023-04-24T17:07:47;1.77;;;1.10;;
11957;SDS011;6039;52.576;13.348;2023-04-24T17:12:54;4.17;;;1.30;;
11957;SDS011;6039;52.576;13.348;2023-04-24T17:17:59;1.53;;;1.13;;
11957;SDS011;6039;52.576;13.348;2023-04-24T17:23:04;1.40;;;1.20;;
11957;SDS011;6039;52.576;13.348;2023-04-24T17:28:14;1.47;;;1.10;;
11957;SDS011;6039;52.576;13.348;2023-04-24T17:33:22;1.50;;;1.20;;
11957;SDS011;6039;52.576;13.348;2023-04-24T17:38:27;1.53;;;1.10;;
11957;SDS011;6039;52.576;13.348;2023-04-24T17:43:34;1.30;;;1.10;;
11957;SDS011;6039;52.576;13.348;2023-04-24T17:48:38;1.47;;;1.13;;
11957;SDS011;6039;52.576;13.348;2023-04-24T17:53:42;1.73;;;1.07;;
11957;SDS011;6039;52.576;13.348;2023-04-24T17:58:50;1.60;;;1.20;;
11957;SDS011;6039;52.576;13.348;2023-04-24T18:03:54;2.13;;;1.40;;
11957;SDS011;6039;52.576;13.348;2023-04-24T18:08:58;1.40;;;1.17;;
11957;SDS011;6039;52.576;13.348;2023-04-24T18:14:05;0.97;;;0.90;;
11957;SDS011;6039;52.576;13.348;2023-04-24T18:19:09;1.23;;;1.00;;
11957;SDS011;6039;52.576;13.348;2023-04-24T18:24:12;0.73;;;0.73;;
11957;SDS011;6039;52.576;13.348;2023-04-24T18:29:19;0.60;;;0.60;;
11957;SDS011;6039;52.576;13.348;2023-04-24T18:34:23;0.70;;;0.67;;
11957;SDS011;6039;52.576;13.348;2023-04-24T18:39:27;0.50;;;0.50;;
11957;SDS011;6039;52.576;13.348;2023-04-24T18:44:34;0.50;;;0.50;;
11957;SDS011;6039;52.576;13.348;2023-04-24T18:49:40;0.60;;;0.60;;
11957;SDS011;6039;52.576;13.348;2023-04-24T18:54:46;0.50;;;0.50;;
11957;SDS011;6039;52.576;13.348;2023-04-24T18:59:53;0.90;;;0.70;;
11957;SDS011;6039;52.576;13.348;2023-04-24T19:04:57;0.70;;;0.63;;
11957;SDS011;6039;52.576;13.348;2023-04-24T19:10:02;0.60;;;0.60;;
11957;SDS011;6039;52.576;13.348;2023-04-24T19:15:12;0.60;;;0.60;;
11957;SDS011;6039;52.576;13.348;2023-04-24T19:20:18;0.80;;;0.73;;
11957;SDS011;6039;52.576;13.348;2023-04-24T19:25:22;0.80;;;0.80;;
11957;SDS011;6039;52.576;13.348;2023-04-24T19:30:29;0.87;;;0.80;;
11957;SDS011;6039;52.576;13.348;2023-04-24T19:35:34;1.37;;;0.80;;
11957;SDS011;6039;52.576;13.348;2023-04-24T19:40:38;1.20;;;0.90;;
11957;SDS011;6039;52.576;13.348;2023-04-24T19:45:44;1.57;;;0.80;;
11957;SDS011;6039;52.576;13.348;2023-04-24T19:50:49;0.80;;;0.80;;
11957;SDS011;6039;52.576;13.348;2023-04-24T19:55:54;1.00;;;0.90;;
11957;SDS011;6039;52.576;13.348;2023-04-24T20:01:00;1.00;;;0.83;;
11957;SDS011;6039;52.576;13.348;2023-04-24T20:06:05;1.10;;;1.00;;
11957;SDS011;6039;52.576;13.348;2023-04-24T20:11:09;1.27;;;1.17;;
11957;SDS011;6039;52.576;13.348;2023-04-24T20:16:16;1.73;;;1.30;;
11957;SDS011;6039;52.576;13.348;2023-04-24T20:21:20;2.73;;;1.30;;
11957;SDS011;6039;52.576;13.348;2023-04-24T20:26:24;1.80;;;1.47;;
11957;SDS011;6039;52.576;13.348;2023-04-24T20:31:30;1.80;;;1.50;;
11957;SDS011;6039;52.576;13.348;2023-04-24T20:36:34;3.23;;;1.50;;
11957;SDS011;6039;52.576;13.348;2023-04-24T20:41:38;1.70;;;1.40;;
11957;SDS011;6039;52.576;13.348;2023-04-24T20:46:45;3.20;;;2.00;;
11957;SDS011;6039;52.576;13.348;2023-04-24T20:51:49;2.67;;;1.80;;
11957;SDS011;6039;52.576;13.348;2023-04-24T20:56:54;2.17;;;1.60;;
11957;SDS011;6039;52.576;13.348;2023-04-24T21:02:00;2.03;;;1.70;;
11957;SDS011;6039;52.576;13.348;2023-04-24T21:07:04;2.00;;;1.80;;
11957;SDS011;6039;52.576;13.348;2023-04-24T21:12:09;2.83;;;2.10;;
11957;SDS011;6039;52.576;13.348;2023-04-24T21:17:16;2.60;;;1.83;;
11957;SDS011;6039;52.576;13.348;2023-04-24T21:22:20;3.07;;;1.90;;
11957;SDS011;6039;52.576;13.348;2023-04-24T21:27:24;2.87;;;2.07;;
11957;SDS011;6039;52.576;13.348;2023-04-24T21:32:31;4.10;;;2.17;;
11957;SDS011;6039;52.576;13.348;2023-04-24T21:37:35;5.77;;;2.40;;
11957;SDS011;6039;52.576;13.348;2023-04-24T21:42:39;5.23;;;2.50;;
11957;SDS011;6039;52.576;13.348;2023-04-24T21:47:45;3.57;;;2.10;;
11957;SDS011;6039;52.576;13.348;2023-04-24T21:52:49;5.50;;;2.60;;
11957;SDS011;6039;52.576;13.348;2023-04-24T21:57:53;4.90;;;2.63;;
11957;SDS011;6039;52.576;13.348;2023-04-24T22:03:00;5.33;;;2.80;;
11957;SDS011;6039;52.576;13.348;2023-04-24T22:08:04;4.30;;;2.93;;
11957;SDS011;6039;52.576;13.348;2023-04-24T22:13:09;4.50;;;2.97;;
11957;SDS011;6039;52.576;13.348;2023-04-24T22:18:16;5.67;;;3.17;;
11957;SDS011;6039;52.576;13.348;2023-04-24T22:23:20;4.80;;;2.80;;
11957;SDS011;6039;52.576;13.348;2023-04-24T22:28:24;3.93;;;2.73;;
11957;SDS011;6039;52.576;13.348;2023-04-24T22:33:30;6.47;;;2.97;;
11957;SDS011;6039;52.576;13.348;2023-04-24T22:38:34;3.87;;;2.67;;
11957;SDS011;6039;52.576;13.348;2023-04-24T22:43:38;3.33;;;2.70;;
11957;SDS011;6039;52.576;13.348;2023-04-24T22:48:46;4.17;;;2.73;;
11957;SDS011;6039;52.576;13.348;2023-04-24T22:53:50;4.50;;;2.90;;
11957;SDS011;6039;52.576;13.348;2023-04-24T22:58:54;5.07;;;2.80;;
11957;SDS011;6039;52.576;13.348;2023-04-24T23:04:00;3.97;;;3.20;;
11957;SDS011;6039;52.576;13.348;2023-04-24T23:09:05;5.47;;;3.03;;
11957;SDS011;6039;52.576;13.348;2023-04-24T23:14:08;3.90;;;2.93;;
11957;SDS011;6039;52.576;13.348;2023-04-24T23:19:15;7.07;;;3.40;;
11957;SDS011;6039;52.576;13.348;2023-04-24T23:24:19;4.40;;;2.87;;
11957;SDS011;6039;52.576;13.348;2023-04-24T23:29:23;4.70;;;2.80;;
11957;SDS011;6039;52.576;13.348;2023-04-24T23:34:30;3.77;;;2.50;;
11957;SDS011;6039;52.576;13.348;2023-04-24T23:39:38;2.70;;;2.10;;
11957;SDS011;6039;52.576;13.348;2023-04-24T23:44:42;3.53;;;2.57;;
11957;SDS011;6039;52.576;13.348;2023-04-24T23:49:48;4.23;;;2.60;;
11957;SDS011;6039;52.576;13.348;2023-04-24T23:54:52;4.90;;;2.60;;
11957;SDS011;6039;52.576;13.348;2023-04-24T23:59:56;4.23;;;2.30;;
